METAR Analyzer

一覧表示

Hello, Guest. (Login)

LTBA/ISL  -  イスタンブール・アタテュルク

観測日時
2021-01-27 15:50 (UTC) (36分前)
気温
2
露点
1
湿数
1
相対湿度
93.1%
QNH
1005hPa
推定現地気圧
999.0hPa
推定海面気圧
1005.2hPa
体感温度
-13.9
(無風時)
5.7
HI
0.7
気温前日比
-12
体感温度前日比
-18
HI前日比
-12.6
水平視程
7000m
鉛直視程
データなし
雲底高度
2200ft AGL
V/I
VMC (VFR)
RVR
No RVR data
卓越風
12kt from 340°
ガスト
No gust
降水
弱いしゅう雨性の雨
その他の天気
報告なし
散在する雲 @ 1000ft AGL / 隙間のある雲 @ 2200ft AGL / 隙間のある雲 @ 7000ft AGL

LTBA 271550Z 34012KT 7000 -SHRA SCT010 BKN022 BKN070 02/01 Q1005 NOSIG RMK RWY23 34011KT

株式会社マネーパートナーズ 【Manepa Card】

LTFM/IST  -  イスタンブール (新)

観測日時
2021-01-27 15:50 (UTC) (36分前)
気温
2
露点
1
湿数
1
相対湿度
93.1%
QNH
1004hPa
推定現地気圧
992.2hPa
推定海面気圧
1004.5hPa
体感温度
-17
(無風時)
5.7
HI
0.7
気温前日比
-11
体感温度前日比
-20.9
HI前日比
-11.7
水平視程
4500m
鉛直視程
データなし
雲底高度
1200ft AGL
V/I
SVMC (SVFR)
RVR
No RVR data
卓越風
21kt from 340°
ガスト
No gust
降水
弱いしゅう雨性の雪
その他の天気
報告なし
隙間のある雲 @ 1200ft AGL / 隙間のある雲 @ 2500ft AGL

LTFM 271550Z 34021KT 4500 -SHSN BKN012 BKN025 02/01 Q1004 NOSIG RMK RWY17L 34024KT RWY34L 33020KT RWY16R 33020KT RWY36 34025KT RWY18 34024KT

6.3msec